sensor_id;sensor_type;location;lat;lon;timestamp;P1;durP1;ratioP1;P2;durP2;ratioP2
17915;SDS011;9083;49.156;8.982;2023-04-25T00:00:40;3.27;;;3.07;;
17915;SDS011;9083;49.156;8.982;2023-04-25T00:03:06;3.50;;;3.20;;
17915;SDS011;9083;49.156;8.982;2023-04-25T00:05:34;5.23;;;2.90;;
17915;SDS011;9083;49.156;8.982;2023-04-25T00:08:03;5.60;;;3.50;;
17915;SDS011;9083;49.156;8.982;2023-04-25T00:10:30;3.37;;;3.07;;
17915;SDS011;9083;49.156;8.982;2023-04-25T00:12:57;4.97;;;3.17;;
17915;SDS011;9083;49.156;8.982;2023-04-25T00:15:23;3.57;;;3.27;;
17915;SDS011;9083;49.156;8.982;2023-04-25T00:17:50;4.23;;;3.57;;
17915;SDS011;9083;49.156;8.982;2023-04-25T00:20:17;3.70;;;3.40;;
17915;SDS011;9083;49.156;8.982;2023-04-25T00:22:44;3.53;;;3.17;;
17915;SDS011;9083;49.156;8.982;2023-04-25T00:25:12;2.80;;;2.57;;
17915;SDS011;9083;49.156;8.982;2023-04-25T00:27:38;4.03;;;3.33;;
17915;SDS011;9083;49.156;8.982;2023-04-25T00:30:07;2.90;;;2.70;;
17915;SDS011;9083;49.156;8.982;2023-04-25T00:32:33;3.43;;;3.13;;
17915;SDS011;9083;49.156;8.982;2023-04-25T00:35:00;3.67;;;3.03;;
17915;SDS011;9083;49.156;8.982;2023-04-25T00:37:26;3.83;;;3.13;;
17915;SDS011;9083;49.156;8.982;2023-04-25T00:39:52;3.60;;;3.27;;
17915;SDS011;9083;49.156;8.982;2023-04-25T00:42:22;3.63;;;3.33;;
17915;SDS011;9083;49.156;8.982;2023-04-25T00:44:48;3.53;;;3.17;;
17915;SDS011;9083;49.156;8.982;2023-04-25T00:47:15;3.73;;;3.40;;
17915;SDS011;9083;49.156;8.982;2023-04-25T00:49:42;3.37;;;3.10;;
17915;SDS011;9083;49.156;8.982;2023-04-25T00:52:09;3.30;;;3.10;;
17915;SDS011;9083;49.156;8.982;2023-04-25T00:54:35;4.67;;;3.40;;
17915;SDS011;9083;49.156;8.982;2023-04-25T00:57:02;4.10;;;3.80;;
17915;SDS011;9083;49.156;8.982;2023-04-25T00:59:29;3.67;;;3.30;;
17915;SDS011;9083;49.156;8.982;2023-04-25T01:01:56;4.00;;;3.23;;
17915;SDS011;9083;49.156;8.982;2023-04-25T01:04:23;3.87;;;3.37;;
17915;SDS011;9083;49.156;8.982;2023-04-25T01:06:49;4.20;;;3.47;;
17915;SDS011;9083;49.156;8.982;2023-04-25T01:09:18;3.57;;;3.30;;
17915;SDS011;9083;49.156;8.982;2023-04-25T01:11:45;3.67;;;3.37;;
17915;SDS011;9083;49.156;8.982;2023-04-25T01:14:12;4.13;;;3.73;;
17915;SDS011;9083;49.156;8.982;2023-04-25T01:16:39;4.67;;;3.40;;
17915;SDS011;9083;49.156;8.982;2023-04-25T01:19:06;3.63;;;3.33;;
17915;SDS011;9083;49.156;8.982;2023-04-25T01:21:37;4.27;;;3.37;;
17915;SDS011;9083;49.156;8.982;2023-04-25T01:24:03;4.73;;;3.97;;
17915;SDS011;9083;49.156;8.982;2023-04-25T01:26:30;4.13;;;3.60;;
17915;SDS011;9083;49.156;8.982;2023-04-25T01:28:57;4.13;;;3.03;;
17915;SDS011;9083;49.156;8.982;2023-04-25T01:31:24;3.97;;;3.10;;
17915;SDS011;9083;49.156;8.982;2023-04-25T01:33:50;5.63;;;3.67;;
17915;SDS011;9083;49.156;8.982;2023-04-25T01:36:17;3.50;;;3.20;;
17915;SDS011;9083;49.156;8.982;2023-04-25T01:38:45;7.07;;;3.70;;
17915;SDS011;9083;49.156;8.982;2023-04-25T01:41:12;5.00;;;3.37;;
17915;SDS011;9083;49.156;8.982;2023-04-25T01:43:39;3.73;;;3.43;;
17915;SDS011;9083;49.156;8.982;2023-04-25T01:46:05;4.27;;;3.50;;
17915;SDS011;9083;49.156;8.982;2023-04-25T01:48:32;8.50;;;3.70;;
17915;SDS011;9083;49.156;8.982;2023-04-25T01:50:58;3.03;;;2.73;;
17915;SDS011;9083;49.156;8.982;2023-04-25T01:53:24;6.43;;;2.90;;
17915;SDS011;9083;49.156;8.982;2023-04-25T01:55:52;3.57;;;3.23;;
17915;SDS011;9083;49.156;8.982;2023-04-25T01:58:19;4.53;;;3.60;;
17915;SDS011;9083;49.156;8.982;2023-04-25T02:00:45;3.60;;;3.30;;
17915;SDS011;9083;49.156;8.982;2023-04-25T02:03:12;4.77;;;3.47;;
17915;SDS011;9083;49.156;8.982;2023-04-25T02:05:39;4.53;;;3.50;;
17915;SDS011;9083;49.156;8.982;2023-04-25T02:08:06;6.87;;;3.67;;
17915;SDS011;9083;49.156;8.982;2023-04-25T02:10:33;6.87;;;5.70;;
17915;SDS011;9083;49.156;8.982;2023-04-25T02:13:01;4.23;;;3.83;;
17915;SDS011;9083;49.156;8.982;2023-04-25T02:15:27;4.63;;;3.70;;
17915;SDS011;9083;49.156;8.982;2023-04-25T02:17:54;4.20;;;3.27;;
17915;SDS011;9083;49.156;8.982;2023-04-25T02:20:21;4.80;;;4.30;;
17915;SDS011;9083;49.156;8.982;2023-04-25T02:22:48;4.60;;;3.77;;
17915;SDS011;9083;49.156;8.982;2023-04-25T02:25:14;5.23;;;3.70;;
17915;SDS011;9083;49.156;8.982;2023-04-25T02:27:41;4.70;;;3.80;;
17915;SDS011;9083;49.156;8.982;2023-04-25T02:30:09;5.20;;;3.63;;
17915;SDS011;9083;49.156;8.982;2023-04-25T02:32:35;4.40;;;3.43;;
17915;SDS011;9083;49.156;8.982;2023-04-25T02:35:02;4.10;;;3.77;;
17915;SDS011;9083;49.156;8.982;2023-04-25T02:37:29;4.53;;;4.13;;
17915;SDS011;9083;49.156;8.982;2023-04-25T02:39:55;4.23;;;3.50;;
17915;SDS011;9083;49.156;8.982;2023-04-25T02:42:21;4.80;;;3.30;;
17915;SDS011;9083;49.156;8.982;2023-04-25T02:44:48;8.13;;;3.50;;
17915;SDS011;9083;49.156;8.982;2023-04-25T02:47:16;7.57;;;4.10;;
17915;SDS011;9083;49.156;8.982;2023-04-25T02:49:42;5.67;;;3.80;;
17915;SDS011;9083;49.156;8.982;2023-04-25T02:52:08;3.93;;;3.30;;
17915;SDS011;9083;49.156;8.982;2023-04-25T02:54:35;4.27;;;3.10;;
17915;SDS011;9083;49.156;8.982;2023-04-25T02:57:01;4.03;;;3.60;;
17915;SDS011;9083;49.156;8.982;2023-04-25T02:59:28;3.53;;;3.23;;
17915;SDS011;9083;49.156;8.982;2023-04-25T03:01:54;5.93;;;3.40;;
17915;SDS011;9083;49.156;8.982;2023-04-25T03:04:22;4.67;;;4.00;;
17915;SDS011;9083;49.156;8.982;2023-04-25T03:06:49;4.20;;;3.80;;
17915;SDS011;9083;49.156;8.982;2023-04-25T03:09:15;4.40;;;3.77;;
17915;SDS011;9083;49.156;8.982;2023-04-25T03:11:42;4.63;;;3.83;;
17915;SDS011;9083;49.156;8.982;2023-04-25T03:14:08;4.53;;;3.93;;
17915;SDS011;9083;49.156;8.982;2023-04-25T03:16:35;4.47;;;4.07;;
17915;SDS011;9083;49.156;8.982;2023-04-25T03:19:01;4.80;;;4.30;;
17915;SDS011;9083;49.156;8.982;2023-04-25T03:21:29;4.93;;;3.90;;
17915;SDS011;9083;49.156;8.982;2023-04-25T03:23:56;5.87;;;4.40;;
17915;SDS011;9083;49.156;8.982;2023-04-25T03:26:23;4.77;;;3.80;;
17915;SDS011;9083;49.156;8.982;2023-04-25T03:28:49;5.67;;;3.67;;
17915;SDS011;9083;49.156;8.982;2023-04-25T03:31:15;4.77;;;4.20;;
17915;SDS011;9083;49.156;8.982;2023-04-25T03:33:42;8.10;;;4.37;;
17915;SDS011;9083;49.156;8.982;2023-04-25T03:36:08;5.50;;;4.03;;
17915;SDS011;9083;49.156;8.982;2023-04-25T03:38:37;6.63;;;4.13;;
17915;SDS011;9083;49.156;8.982;2023-04-25T03:41:03;5.67;;;4.50;;
17915;SDS011;9083;49.156;8.982;2023-04-25T03:43:29;5.60;;;3.90;;
17915;SDS011;9083;49.156;8.982;2023-04-25T03:45:57;6.70;;;4.70;;
17915;SDS011;9083;49.156;8.982;2023-04-25T03:48:25;4.90;;;4.37;;
17915;SDS011;9083;49.156;8.982;2023-04-25T03:50:51;5.30;;;4.17;;
17915;SDS011;9083;49.156;8.982;2023-04-25T03:53:18;4.67;;;4.20;;
17915;SDS011;9083;49.156;8.982;2023-04-25T03:55:45;7.63;;;5.03;;
17915;SDS011;9083;49.156;8.982;2023-04-25T03:58:12;7.80;;;5.07;;
17915;SDS011;9083;49.156;8.982;2023-04-25T04:00:38;5.33;;;4.83;;
17915;SDS011;9083;49.156;8.982;2023-04-25T04:03:05;6.37;;;3.80;;
17915;SDS011;9083;49.156;8.982;2023-04-25T04:05:31;5.10;;;4.60;;
17915;SDS011;9083;49.156;8.982;2023-04-25T04:07:58;4.87;;;4.37;;
17915;SDS011;9083;49.156;8.982;2023-04-25T04:10:25;9.37;;;4.53;;
17915;SDS011;9083;49.156;8.982;2023-04-25T04:12:53;8.80;;;4.77;;
17915;SDS011;9083;49.156;8.982;2023-04-25T04:15:20;6.40;;;5.30;;
17915;SDS011;9083;49.156;8.982;2023-04-25T04:17:46;6.27;;;4.47;;
17915;SDS011;9083;49.156;8.982;2023-04-25T04:20:12;6.63;;;5.20;;
17915;SDS011;9083;49.156;8.982;2023-04-25T04:22:39;5.43;;;4.40;;
17915;SDS011;9083;49.156;8.982;2023-04-25T04:25:05;6.43;;;5.00;;
17915;SDS011;9083;49.156;8.982;2023-04-25T04:27:32;7.70;;;4.83;;
17915;SDS011;9083;49.156;8.982;2023-04-25T04:30:00;5.73;;;5.10;;
17915;SDS011;9083;49.156;8.982;2023-04-25T04:32:28;8.23;;;5.30;;
17915;SDS011;9083;49.156;8.982;2023-04-25T04:34:55;7.23;;;5.30;;
17915;SDS011;9083;49.156;8.982;2023-04-25T04:37:22;9.87;;;5.30;;
17915;SDS011;9083;49.156;8.982;2023-04-25T04:39:49;6.83;;;5.30;;
17915;SDS011;9083;49.156;8.982;2023-04-25T04:42:15;8.07;;;5.50;;
17915;SDS011;9083;49.156;8.982;2023-04-25T04:44:42;9.27;;;5.70;;
17915;SDS011;9083;49.156;8.982;2023-04-25T04:47:11;7.17;;;5.43;;
17915;SDS011;9083;49.156;8.982;2023-04-25T04:49:39;7.40;;;4.87;;
17915;SDS011;9083;49.156;8.982;2023-04-25T04:52:05;7.83;;;5.53;;
17915;SDS011;9083;49.156;8.982;2023-04-25T04:54:31;7.97;;;4.97;;
17915;SDS011;9083;49.156;8.982;2023-04-25T04:57:00;6.90;;;5.07;;
17915;SDS011;9083;49.156;8.982;2023-04-25T04:59:26;8.50;;;5.67;;
17915;SDS011;9083;49.156;8.982;2023-04-25T05:01:53;7.30;;;5.33;;
17915;SDS011;9083;49.156;8.982;2023-04-25T05:04:20;7.63;;;5.63;;
17915;SDS011;9083;49.156;8.982;2023-04-25T05:06:47;6.00;;;4.83;;
17915;SDS011;9083;49.156;8.982;2023-04-25T05:09:16;13.77;;;6.33;;
17915;SDS011;9083;49.156;8.982;2023-04-25T05:11:44;15.17;;;6.47;;
17915;SDS011;9083;49.156;8.982;2023-04-25T05:14:10;6.97;;;4.70;;
17915;SDS011;9083;49.156;8.982;2023-04-25T05:16:36;10.97;;;5.83;;
17915;SDS011;9083;49.156;8.982;2023-04-25T05:19:03;5.87;;;5.07;;
17915;SDS011;9083;49.156;8.982;2023-04-25T05:21:31;11.23;;;6.30;;
17915;SDS011;9083;49.156;8.982;2023-04-25T05:23:57;8.30;;;5.47;;
17915;SDS011;9083;49.156;8.982;2023-04-25T05:26:24;6.17;;;4.73;;
17915;SDS011;9083;49.156;8.982;2023-04-25T05:28:51;6.53;;;4.63;;
17915;SDS011;9083;49.156;8.982;2023-04-25T05:31:17;7.57;;;5.27;;
17915;SDS011;9083;49.156;8.982;2023-04-25T05:33:43;7.23;;;5.23;;
17915;SDS011;9083;49.156;8.982;2023-04-25T05:36:10;7.80;;;5.37;;
17915;SDS011;9083;49.156;8.982;2023-04-25T05:38:37;7.87;;;5.60;;
17915;SDS011;9083;49.156;8.982;2023-04-25T05:41:04;5.53;;;4.73;;
17915;SDS011;9083;49.156;8.982;2023-04-25T05:43:30;13.73;;;6.00;;
17915;SDS011;9083;49.156;8.982;2023-04-25T05:45:57;10.80;;;5.77;;
17915;SDS011;9083;49.156;8.982;2023-04-25T05:48:23;6.33;;;5.37;;
17915;SDS011;9083;49.156;8.982;2023-04-25T05:50:49;9.80;;;6.70;;
17915;SDS011;9083;49.156;8.982;2023-04-25T05:53:16;8.73;;;5.73;;
17915;SDS011;9083;49.156;8.982;2023-04-25T05:55:44;11.07;;;5.50;;
17915;SDS011;9083;49.156;8.982;2023-04-25T05:58:10;8.00;;;4.93;;
17915;SDS011;9083;49.156;8.982;2023-04-25T06:00:37;6.73;;;5.23;;
17915;SDS011;9083;49.156;8.982;2023-04-25T06:03:03;8.57;;;5.47;;
17915;SDS011;9083;49.156;8.982;2023-04-25T06:05:30;9.20;;;6.47;;
17915;SDS011;9083;49.156;8.982;2023-04-25T06:07:59;9.93;;;5.37;;
17915;SDS011;9083;49.156;8.982;2023-04-25T06:10:26;15.93;;;6.87;;
17915;SDS011;9083;49.156;8.982;2023-04-25T06:12:54;27.47;;;6.80;;
17915;SDS011;9083;49.156;8.982;2023-04-25T06:15:20;25.53;;;6.23;;
17915;SDS011;9083;49.156;8.982;2023-04-25T06:17:46;25.53;;;7.97;;
17915;SDS011;9083;49.156;8.982;2023-04-25T06:20:13;34.43;;;6.77;;
17915;SDS011;9083;49.156;8.982;2023-04-25T06:22:40;25.73;;;6.97;;
17915;SDS011;9083;49.156;8.982;2023-04-25T06:25:07;12.13;;;6.13;;
17915;SDS011;9083;49.156;8.982;2023-04-25T06:27:33;27.30;;;7.67;;
17915;SDS011;9083;49.156;8.982;2023-04-25T06:30:01;17.50;;;6.03;;
17915;SDS011;9083;49.156;8.982;2023-04-25T06:32:27;24.17;;;7.00;;
17915;SDS011;9083;49.156;8.982;2023-04-25T06:34:55;37.23;;;7.47;;
17915;SDS011;9083;49.156;8.982;2023-04-25T06:37:21;11.97;;;6.40;;
17915;SDS011;9083;49.156;8.982;2023-04-25T06:39:47;13.23;;;4.87;;
17915;SDS011;9083;49.156;8.982;2023-04-25T06:42:14;65.70;;;9.97;;
17915;SDS011;9083;49.156;8.982;2023-04-25T06:44:40;79.53;;;13.13;;
17915;SDS011;9083;49.156;8.982;2023-04-25T06:47:08;27.30;;;6.30;;
17915;SDS011;9083;49.156;8.982;2023-04-25T06:49:34;20.90;;;6.63;;
17915;SDS011;9083;49.156;8.982;2023-04-25T06:52:02;26.00;;;7.30;;
17915;SDS011;9083;49.156;8.982;2023-04-25T06:54:28;62.10;;;9.93;;
17915;SDS011;9083;49.156;8.982;2023-04-25T06:56:55;71.27;;;9.53;;
17915;SDS011;9083;49.156;8.982;2023-04-25T06:59:21;14.90;;;5.50;;
17915;SDS011;9083;49.156;8.982;2023-04-25T07:01:48;56.30;;;9.63;;
17915;SDS011;9083;49.156;8.982;2023-04-25T07:04:16;51.80;;;9.23;;
17915;SDS011;9083;49.156;8.982;2023-04-25T07:06:42;9.83;;;5.13;;
17915;SDS011;9083;49.156;8.982;2023-04-25T07:09:09;21.07;;;6.27;;
17915;SDS011;9083;49.156;8.982;2023-04-25T07:11:35;19.57;;;6.63;;
17915;SDS011;9083;49.156;8.982;2023-04-25T07:14:02;87.63;;;11.23;;
17915;SDS011;9083;49.156;8.982;2023-04-25T07:16:28;32.80;;;8.00;;
17915;SDS011;9083;49.156;8.982;2023-04-25T07:18:55;26.90;;;7.70;;
17915;SDS011;9083;49.156;8.982;2023-04-25T07:21:22;29.57;;;7.80;;
17915;SDS011;9083;49.156;8.982;2023-04-25T07:23:49;20.67;;;5.50;;
17915;SDS011;9083;49.156;8.982;2023-04-25T07:26:15;16.13;;;7.50;;
17915;SDS011;9083;49.156;8.982;2023-04-25T07:28:42;17.20;;;6.73;;
17915;SDS011;9083;49.156;8.982;2023-04-25T07:31:08;20.17;;;6.50;;
17915;SDS011;9083;49.156;8.982;2023-04-25T07:33:35;30.03;;;6.30;;
17915;SDS011;9083;49.156;8.982;2023-04-25T07:36:01;10.17;;;5.50;;
17915;SDS011;9083;49.156;8.982;2023-04-25T07:38:29;12.63;;;4.90;;
17915;SDS011;9083;49.156;8.982;2023-04-25T07:40:55;102.07;;;13.53;;
17915;SDS011;9083;49.156;8.982;2023-04-25T07:43:22;26.90;;;7.40;;
17915;SDS011;9083;49.156;8.982;2023-04-25T07:45:48;68.80;;;11.70;;
17915;SDS011;9083;49.156;8.982;2023-04-25T07:48:16;13.77;;;6.10;;
17915;SDS011;9083;49.156;8.982;2023-04-25T07:50:43;31.17;;;9.23;;
17915;SDS011;9083;49.156;8.982;2023-04-25T07:53:10;52.17;;;12.07;;
17915;SDS011;9083;49.156;8.982;2023-04-25T07:55:38;13.27;;;7.67;;
17915;SDS011;9083;49.156;8.982;2023-04-25T07:58:05;39.27;;;9.40;;
17915;SDS011;9083;49.156;8.982;2023-04-25T08:00:31;10.43;;;6.87;;
17915;SDS011;9083;49.156;8.982;2023-04-25T08:02:57;21.20;;;7.73;;
17915;SDS011;9083;49.156;8.982;2023-04-25T08:05:24;36.37;;;8.53;;
17915;SDS011;9083;49.156;8.982;2023-04-25T08:07:50;18.83;;;7.63;;
17915;SDS011;9083;49.156;8.982;2023-04-25T08:10:17;43.03;;;9.33;;
17915;SDS011;9083;49.156;8.982;2023-04-25T08:12:45;26.27;;;8.10;;
17915;SDS011;9083;49.156;8.982;2023-04-25T08:15:11;19.03;;;7.80;;
17915;SDS011;9083;49.156;8.982;2023-04-25T08:17:38;12.03;;;8.20;;
17915;SDS011;9083;49.156;8.982;2023-04-25T08:20:05;27.20;;;9.37;;
17915;SDS011;9083;49.156;8.982;2023-04-25T08:22:32;13.43;;;7.47;;
17915;SDS011;9083;49.156;8.982;2023-04-25T08:24:59;38.47;;;10.43;;
17915;SDS011;9083;49.156;8.982;2023-04-25T08:27:25;25.07;;;8.23;;
17915;SDS011;9083;49.156;8.982;2023-04-25T08:29:53;30.43;;;9.47;;
17915;SDS011;9083;49.156;8.982;2023-04-25T08:32:19;19.27;;;7.90;;
17915;SDS011;9083;49.156;8.982;2023-04-25T08:34:46;12.93;;;7.50;;
17915;SDS011;9083;49.156;8.982;2023-04-25T08:37:12;18.20;;;7.93;;
17915;SDS011;9083;49.156;8.982;2023-04-25T08:39:39;12.67;;;6.47;;
17915;SDS011;9083;49.156;8.982;2023-04-25T08:42:07;20.40;;;6.67;;
17915;SDS011;9083;49.156;8.982;2023-04-25T08:44:33;19.90;;;7.60;;
17915;SDS011;9083;49.156;8.982;2023-04-25T08:47:02;15.17;;;7.53;;
17915;SDS011;9083;49.156;8.982;2023-04-25T08:49:29;8.60;;;6.97;;
17915;SDS011;9083;49.156;8.982;2023-04-25T08:51:55;11.83;;;7.93;;
17915;SDS011;9083;49.156;8.982;2023-04-25T08:54:25;14.57;;;7.60;;
17915;SDS011;9083;49.156;8.982;2023-04-25T08:56:53;12.63;;;8.27;;
17915;SDS011;9083;49.156;8.982;2023-04-25T08:59:20;5.37;;;4.70;;
17915;SDS011;9083;49.156;8.982;2023-04-25T09:01:47;7.23;;;5.53;;
17915;SDS011;9083;49.156;8.982;2023-04-25T09:04:15;5.13;;;4.60;;
17915;SDS011;9083;49.156;8.982;2023-04-25T09:06:41;5.57;;;5.00;;
17915;SDS011;9083;49.156;8.982;2023-04-25T09:09:08;6.67;;;5.33;;
17915;SDS011;9083;49.156;8.982;2023-04-25T09:11:35;8.07;;;4.70;;
17915;SDS011;9083;49.156;8.982;2023-04-25T09:14:12;5.13;;;3.67;;
17915;SDS011;9083;49.156;8.982;2023-04-25T09:16:57;4.17;;;3.37;;
17915;SDS011;9083;49.156;8.982;2023-04-25T09:19:26;3.87;;;3.40;;
17915;SDS011;9083;49.156;8.982;2023-04-25T09:21:53;7.30;;;4.37;;
17915;SDS011;9083;49.156;8.982;2023-04-25T09:24:20;3.97;;;3.60;;
17915;SDS011;9083;49.156;8.982;2023-04-25T09:26:55;5.33;;;4.43;;
17915;SDS011;9083;49.156;8.982;2023-04-25T09:29:24;6.57;;;3.93;;
17915;SDS011;9083;49.156;8.982;2023-04-25T09:31:57;6.83;;;4.70;;
17915;SDS011;9083;49.156;8.982;2023-04-25T09:34:40;3.50;;;3.20;;
17915;SDS011;9083;49.156;8.982;2023-04-25T09:37:07;4.17;;;3.20;;
17915;SDS011;9083;49.156;8.982;2023-04-25T09:39:33;4.37;;;3.50;;
17915;SDS011;9083;49.156;8.982;2023-04-25T09:42:00;3.40;;;3.20;;
17915;SDS011;9083;49.156;8.982;2023-04-25T09:44:26;4.23;;;3.83;;
17915;SDS011;9083;49.156;8.982;2023-04-25T09:46:53;4.30;;;3.90;;
17915;SDS011;9083;49.156;8.982;2023-04-25T09:49:19;4.93;;;4.50;;
17915;SDS011;9083;49.156;8.982;2023-04-25T09:51:54;3.57;;;3.20;;
17915;SDS011;9083;49.156;8.982;2023-04-25T09:54:22;3.90;;;3.37;;
17915;SDS011;9083;49.156;8.982;2023-04-25T09:56:52;7.60;;;5.33;;
17915;SDS011;9083;49.156;8.982;2023-04-25T09:59:19;6.00;;;5.40;;
17915;SDS011;9083;49.156;8.982;2023-04-25T10:01:46;4.80;;;4.00;;
17915;SDS011;9083;49.156;8.982;2023-04-25T10:04:14;4.80;;;4.10;;
17915;SDS011;9083;49.156;8.982;2023-04-25T10:06:42;4.70;;;4.30;;
17915;SDS011;9083;49.156;8.982;2023-04-25T10:09:10;13.03;;;7.17;;
17915;SDS011;9083;49.156;8.982;2023-04-25T10:11:37;5.57;;;4.50;;
17915;SDS011;9083;49.156;8.982;2023-04-25T10:14:04;5.37;;;4.60;;
17915;SDS011;9083;49.156;8.982;2023-04-25T10:16:31;4.90;;;4.40;;
17915;SDS011;9083;49.156;8.982;2023-04-25T10:18:57;5.13;;;4.60;;
17915;SDS011;9083;49.156;8.982;2023-04-25T10:21:23;6.97;;;5.17;;
17915;SDS011;9083;49.156;8.982;2023-04-25T10:23:52;5.70;;;5.07;;
17915;SDS011;9083;49.156;8.982;2023-04-25T10:26:20;8.63;;;6.23;;
17915;SDS011;9083;49.156;8.982;2023-04-25T10:28:56;9.07;;;6.27;;
17915;SDS011;9083;49.156;8.982;2023-04-25T10:31:22;12.07;;;7.70;;
17915;SDS011;9083;49.156;8.982;2023-04-25T10:33:49;14.90;;;8.00;;
17915;SDS011;9083;49.156;8.982;2023-04-25T10:36:17;11.03;;;6.70;;
17915;SDS011;9083;49.156;8.982;2023-04-25T10:38:44;13.07;;;6.10;;
17915;SDS011;9083;49.156;8.982;2023-04-25T10:41:11;12.43;;;6.70;;
17915;SDS011;9083;49.156;8.982;2023-04-25T10:43:39;10.13;;;6.80;;
17915;SDS011;9083;49.156;8.982;2023-04-25T10:46:16;13.67;;;7.77;;
17915;SDS011;9083;49.156;8.982;2023-04-25T10:48:44;8.43;;;6.07;;
17915;SDS011;9083;49.156;8.982;2023-04-25T10:51:11;10.90;;;5.53;;
17915;SDS011;9083;49.156;8.982;2023-04-25T10:53:38;8.80;;;5.13;;
17915;SDS011;9083;49.156;8.982;2023-04-25T10:56:09;10.27;;;5.40;;
17915;SDS011;9083;49.156;8.982;2023-04-25T10:58:35;9.87;;;5.00;;
17915;SDS011;9083;49.156;8.982;2023-04-25T11:01:03;8.73;;;5.17;;
17915;SDS011;9083;49.156;8.982;2023-04-25T11:03:29;8.03;;;4.77;;
17915;SDS011;9083;49.156;8.982;2023-04-25T11:05:56;8.03;;;5.60;;
17915;SDS011;9083;49.156;8.982;2023-04-25T11:08:24;8.93;;;5.43;;
17915;SDS011;9083;49.156;8.982;2023-04-25T11:10:55;11.43;;;6.77;;
17915;SDS011;9083;49.156;8.982;2023-04-25T11:13:21;17.50;;;9.27;;
17915;SDS011;9083;49.156;8.982;2023-04-25T11:15:50;31.90;;;16.07;;
17915;SDS011;9083;49.156;8.982;2023-04-25T11:18:18;24.73;;;12.23;;
17915;SDS011;9083;49.156;8.982;2023-04-25T11:20:46;11.70;;;6.80;;
17915;SDS011;9083;49.156;8.982;2023-04-25T11:23:14;13.77;;;6.37;;
17915;SDS011;9083;49.156;8.982;2023-04-25T11:25:41;13.07;;;6.00;;
17915;SDS011;9083;49.156;8.982;2023-04-25T11:28:08;8.77;;;5.70;;
17915;SDS011;9083;49.156;8.982;2023-04-25T11:30:35;13.27;;;5.80;;
17915;SDS011;9083;49.156;8.982;2023-04-25T11:33:01;7.47;;;5.70;;
17915;SDS011;9083;49.156;8.982;2023-04-25T11:35:30;18.17;;;5.87;;
17915;SDS011;9083;49.156;8.982;2023-04-25T11:37:58;9.47;;;5.47;;
17915;SDS011;9083;49.156;8.982;2023-04-25T11:40:25;12.03;;;5.67;;
17915;SDS011;9083;49.156;8.982;2023-04-25T11:42:52;7.50;;;5.23;;
17915;SDS011;9083;49.156;8.982;2023-04-25T11:45:18;15.60;;;5.40;;
17915;SDS011;9083;49.156;8.982;2023-04-25T11:47:45;14.30;;;6.30;;
17915;SDS011;9083;49.156;8.982;2023-04-25T11:50:11;15.33;;;5.57;;
17915;SDS011;9083;49.156;8.982;2023-04-25T11:52:41;17.30;;;6.60;;
17915;SDS011;9083;49.156;8.982;2023-04-25T11:55:08;13.07;;;5.00;;
17915;SDS011;9083;49.156;8.982;2023-04-25T11:57:34;34.43;;;8.30;;
17915;SDS011;9083;49.156;8.982;2023-04-25T12:00:05;55.03;;;7.90;;
17915;SDS011;9083;49.156;8.982;2023-04-25T12:02:32;21.10;;;6.60;;
17915;SDS011;9083;49.156;8.982;2023-04-25T12:05:00;39.20;;;7.13;;
17915;SDS011;9083;49.156;8.982;2023-04-25T12:07:28;10.00;;;4.97;;
17915;SDS011;9083;49.156;8.982;2023-04-25T12:09:56;23.37;;;6.47;;
17915;SDS011;9083;49.156;8.982;2023-04-25T12:12:26;42.63;;;8.37;;
17915;SDS011;9083;49.156;8.982;2023-04-25T12:14:53;93.00;;;10.60;;
17915;SDS011;9083;49.156;8.982;2023-04-25T12:17:20;20.33;;;6.50;;
17915;SDS011;9083;49.156;8.982;2023-04-25T12:19:46;158.27;;;19.90;;
17915;SDS011;9083;49.156;8.982;2023-04-25T12:22:19;20.67;;;6.37;;
17915;SDS011;9083;49.156;8.982;2023-04-25T12:24:46;23.50;;;8.67;;
17915;SDS011;9083;49.156;8.982;2023-04-25T12:27:14;26.73;;;8.27;;
17915;SDS011;9083;49.156;8.982;2023-04-25T12:29:49;14.67;;;5.20;;
17915;SDS011;9083;49.156;8.982;2023-04-25T12:32:16;12.57;;;5.40;;
17915;SDS011;9083;49.156;8.982;2023-04-25T12:34:43;19.53;;;7.33;;
17915;SDS011;9083;49.156;8.982;2023-04-25T12:37:09;22.43;;;6.57;;
17915;SDS011;9083;49.156;8.982;2023-04-25T12:39:36;18.70;;;5.97;;
17915;SDS011;9083;49.156;8.982;2023-04-25T12:42:02;10.93;;;5.00;;
17915;SDS011;9083;49.156;8.982;2023-04-25T12:44:30;15.23;;;5.83;;
17915;SDS011;9083;49.156;8.982;2023-04-25T12:46:57;12.37;;;5.63;;
17915;SDS011;9083;49.156;8.982;2023-04-25T12:49:24;28.27;;;6.03;;
17915;SDS011;9083;49.156;8.982;2023-04-25T12:51:51;30.37;;;6.93;;
17915;SDS011;9083;49.156;8.982;2023-04-25T12:54:17;16.87;;;5.70;;
17915;SDS011;9083;49.156;8.982;2023-04-25T12:56:44;18.53;;;5.40;;
17915;SDS011;9083;49.156;8.982;2023-04-25T12:59:11;51.97;;;8.63;;
17915;SDS011;9083;49.156;8.982;2023-04-25T13:01:39;27.10;;;7.77;;
17915;SDS011;9083;49.156;8.982;2023-04-25T13:04:05;9.57;;;5.40;;
17915;SDS011;9083;49.156;8.982;2023-04-25T13:06:31;25.13;;;6.17;;
17915;SDS011;9083;49.156;8.982;2023-04-25T13:08:58;15.73;;;5.77;;
17915;SDS011;9083;49.156;8.982;2023-04-25T13:11:24;9.23;;;4.77;;
17915;SDS011;9083;49.156;8.982;2023-04-25T13:13:51;23.77;;;7.40;;
17915;SDS011;9083;49.156;8.982;2023-04-25T13:16:17;12.47;;;4.87;;
17915;SDS011;9083;49.156;8.982;2023-04-25T13:18:47;10.87;;;4.73;;
17915;SDS011;9083;49.156;8.982;2023-04-25T13:21:13;19.30;;;6.10;;
17915;SDS011;9083;49.156;8.982;2023-04-25T13:23:40;8.13;;;4.40;;
17915;SDS011;9083;49.156;8.982;2023-04-25T13:26:07;10.97;;;5.07;;
17915;SDS011;9083;49.156;8.982;2023-04-25T13:28:34;76.03;;;10.77;;
17915;SDS011;9083;49.156;8.982;2023-04-25T13:31:00;11.43;;;5.33;;
17915;SDS011;9083;49.156;8.982;2023-04-25T13:33:26;31.50;;;7.73;;
17915;SDS011;9083;49.156;8.982;2023-04-25T13:35:54;59.83;;;8.83;;
17915;SDS011;9083;49.156;8.982;2023-04-25T13:38:22;10.70;;;4.43;;
17915;SDS011;9083;49.156;8.982;2023-04-25T13:40:49;44.27;;;6.53;;
17915;SDS011;9083;49.156;8.982;2023-04-25T13:43:17;12.27;;;3.83;;
17915;SDS011;9083;49.156;8.982;2023-04-25T13:45:44;20.37;;;6.13;;
17915;SDS011;9083;49.156;8.982;2023-04-25T13:48:10;14.13;;;4.30;;
17915;SDS011;9083;49.156;8.982;2023-04-25T13:50:36;14.07;;;4.30;;
17915;SDS011;9083;49.156;8.982;2023-04-25T13:53:04;32.13;;;5.93;;
17915;SDS011;9083;49.156;8.982;2023-04-25T13:55:31;31.33;;;6.30;;
17915;SDS011;9083;49.156;8.982;2023-04-25T13:57:57;9.07;;;4.50;;
17915;SDS011;9083;49.156;8.982;2023-04-25T14:00:23;16.80;;;4.40;;
17915;SDS011;9083;49.156;8.982;2023-04-25T14:02:50;3.47;;;3.17;;
17915;SDS011;9083;49.156;8.982;2023-04-25T14:05:16;9.90;;;3.70;;
17915;SDS011;9083;49.156;8.982;2023-04-25T14:07:43;6.73;;;3.57;;
17915;SDS011;9083;49.156;8.982;2023-04-25T14:10:11;7.67;;;3.47;;
17915;SDS011;9083;49.156;8.982;2023-04-25T14:12:37;14.30;;;4.40;;
17915;SDS011;9083;49.156;8.982;2023-04-25T14:15:04;8.03;;;3.20;;
17915;SDS011;9083;49.156;8.982;2023-04-25T14:17:30;10.93;;;3.63;;
17915;SDS011;9083;49.156;8.982;2023-04-25T14:19:56;8.40;;;4.43;;
17915;SDS011;9083;49.156;8.982;2023-04-25T14:22:23;9.37;;;4.10;;
17915;SDS011;9083;49.156;8.982;2023-04-25T14:24:50;9.17;;;3.80;;
17915;SDS011;9083;49.156;8.982;2023-04-25T14:27:18;10.73;;;4.43;;
17915;SDS011;9083;49.156;8.982;2023-04-25T14:29:44;5.77;;;3.23;;
17915;SDS011;9083;49.156;8.982;2023-04-25T14:32:11;5.40;;;4.30;;
17915;SDS011;9083;49.156;8.982;2023-04-25T14:34:37;7.10;;;4.10;;
17915;SDS011;9083;49.156;8.982;2023-04-25T14:37:04;6.47;;;3.77;;
17915;SDS011;9083;49.156;8.982;2023-04-25T14:39:30;12.00;;;4.30;;
17915;SDS011;9083;49.156;8.982;2023-04-25T14:41:57;9.70;;;4.40;;
17915;SDS011;9083;49.156;8.982;2023-04-25T14:44:25;12.30;;;4.53;;
17915;SDS011;9083;49.156;8.982;2023-04-25T14:46:51;11.23;;;3.70;;
17915;SDS011;9083;49.156;8.982;2023-04-25T14:49:17;12.10;;;5.53;;
17915;SDS011;9083;49.156;8.982;2023-04-25T14:51:44;8.27;;;3.87;;
17915;SDS011;9083;49.156;8.982;2023-04-25T14:54:10;3.60;;;3.23;;